Avondale, Texas
Current Conditions -  °F | °C
As of 2:52 AM on Saturday 25 Oct 2014 (Local Time) from KHRL Reporting Station
Clear Clear  
Wind Chill: 63°   Ceiling: Unl
Heat Index: 63°   Visibility: 8mi
Dew Point: 61°   Wind: 3mph
Humidity: 93%   Direction: 270°W
Pressure: 30.11"   Gusts: NA
Location:  26.2089°N, 97.6849°W
Report Text: KHRL 250752Z 27003KT 8SM CLR 17/16 A3011 RMK AO2 SLP196 T01720161
Loading
Personal Weather Stations






























Interactive Weather Map
Tropical Storm Tracking
New forecast layout! Learn more

10-Day Weather Forecast

Advertisements
Track Severe Weather on mobile